sensor_id;sensor_type;location;lat;lon;timestamp;pressure;altitude;pressure_sealevel;temperature;humidity
33161;BME280;19522;45.656;11.302;2024-01-15T00:01:44;97284.63;;;2.28;88.79
33161;BME280;19522;45.656;11.302;2024-01-15T00:04:10;97286.44;;;2.28;88.45
33161;BME280;19522;45.656;11.302;2024-01-15T00:06:36;97293.88;;;2.51;88.38
33161;BME280;19522;45.656;11.302;2024-01-15T00:09:02;97279.47;;;2.43;88.14
33161;BME280;19522;45.656;11.302;2024-01-15T00:11:27;97283.47;;;2.39;87.94
33161;BME280;19522;45.656;11.302;2024-01-15T00:13:53;97286.16;;;2.47;88.59
33161;BME280;19522;45.656;11.302;2024-01-15T00:16:18;97278.91;;;2.23;88.50
33161;BME280;19522;45.656;11.302;2024-01-15T00:18:44;97282.44;;;2.24;88.50
33161;BME280;19522;45.656;11.302;2024-01-15T00:21:09;97268.50;;;2.12;88.66
33161;BME280;19522;45.656;11.302;2024-01-15T00:23:35;97265.19;;;2.34;88.51
33161;BME280;19522;45.656;11.302;2024-01-15T00:26:00;97275.41;;;2.31;88.50
33161;BME280;19522;45.656;11.302;2024-01-15T00:28:26;97262.69;;;2.33;88.26
33161;BME280;19522;45.656;11.302;2024-01-15T00:30:52;97254.00;;;2.72;86.53
33161;BME280;19522;45.656;11.302;2024-01-15T00:33:17;97208.09;;;2.84;84.78
33161;BME280;19522;45.656;11.302;2024-01-15T00:35:43;97255.69;;;2.73;85.33
33161;BME280;19522;45.656;11.302;2024-01-15T00:38:08;97266.75;;;2.54;86.31
33161;BME280;19522;45.656;11.302;2024-01-15T00:40:34;97270.56;;;2.34;87.55
33161;BME280;19522;45.656;11.302;2024-01-15T00:42:59;97272.53;;;2.24;88.25
33161;BME280;19522;45.656;11.302;2024-01-15T00:45:25;97265.06;;;2.77;86.39
33161;BME280;19522;45.656;11.302;2024-01-15T00:47:50;97245.09;;;2.80;85.06
33161;BME280;19522;45.656;11.302;2024-01-15T00:50:16;97201.53;;;2.12;86.33
33161;BME280;19522;45.656;11.302;2024-01-15T00:52:45;97223.00;;;2.53;86.36
33161;BME280;19522;45.656;11.302;2024-01-15T00:55:11;97248.31;;;2.67;85.95
33161;BME280;19522;45.656;11.302;2024-01-15T00:57:36;97231.88;;;2.45;86.44
33161;BME280;19522;45.656;11.302;2024-01-15T01:00:02;97197.31;;;1.93;88.33
33161;BME280;19522;45.656;11.302;2024-01-15T01:05:12;97225.41;;;1.80;91.57
33161;BME280;19522;45.656;11.302;2024-01-15T01:07:38;97218.28;;;2.06;90.82
33161;BME280;19522;45.656;11.302;2024-01-15T01:10:04;97244.88;;;1.99;90.83
33161;BME280;19522;45.656;11.302;2024-01-15T01:12:29;97227.59;;;1.85;90.90
33161;BME280;19522;45.656;11.302;2024-01-15T01:14:55;97242.69;;;1.94;91.28
33161;BME280;19522;45.656;11.302;2024-01-15T01:17:21;97241.19;;;2.08;90.87
33161;BME280;19522;45.656;11.302;2024-01-15T01:19:47;97232.06;;;2.44;89.49
33161;BME280;19522;45.656;11.302;2024-01-15T01:22:12;97222.81;;;2.46;88.32
33161;BME280;19522;45.656;11.302;2024-01-15T01:24:38;97190.50;;;2.15;89.12
33161;BME280;19522;45.656;11.302;2024-01-15T01:27:04;97223.63;;;2.14;89.99
33161;BME280;19522;45.656;11.302;2024-01-15T01:29:29;97205.41;;;2.17;89.75
33161;BME280;19522;45.656;11.302;2024-01-15T01:31:55;97179.28;;;2.28;89.18
33161;BME280;19522;45.656;11.302;2024-01-15T01:34:21;97182.47;;;2.23;89.12
33161;BME280;19522;45.656;11.302;2024-01-15T01:36:47;97183.97;;;2.17;89.42
33161;BME280;19522;45.656;11.302;2024-01-15T01:39:13;97159.53;;;1.96;89.51
33161;BME280;19522;45.656;11.302;2024-01-15T01:41:39;97209.75;;;2.27;89.56
33161;BME280;19522;45.656;11.302;2024-01-15T01:44:05;97171.91;;;2.13;88.79
33161;BME280;19522;45.656;11.302;2024-01-15T01:46:31;97194.84;;;2.41;88.73
33161;BME280;19522;45.656;11.302;2024-01-15T01:48:57;97203.25;;;2.46;87.46
33161;BME280;19522;45.656;11.302;2024-01-15T01:51:23;97197.72;;;2.23;88.75
33161;BME280;19522;45.656;11.302;2024-01-15T01:53:50;97187.00;;;2.06;90.09
33161;BME280;19522;45.656;11.302;2024-01-15T01:56:16;97178.97;;;2.31;89.32
33161;BME280;19522;45.656;11.302;2024-01-15T01:58:43;97152.16;;;2.47;87.99
33161;BME280;19522;45.656;11.302;2024-01-15T02:01:10;97158.69;;;2.37;88.91
33161;BME280;19522;45.656;11.302;2024-01-15T02:03:38;97161.53;;;2.02;89.62
33161;BME280;19522;45.656;11.302;2024-01-15T02:06:05;97162.00;;;1.89;91.06
33161;BME280;19522;45.656;11.302;2024-01-15T02:08:31;97152.47;;;1.86;91.15
33161;BME280;19522;45.656;11.302;2024-01-15T02:10:56;97116.31;;;1.82;91.43
33161;BME280;19522;45.656;11.302;2024-01-15T02:13:22;97135.22;;;1.73;91.20
33161;BME280;19522;45.656;11.302;2024-01-15T02:15:48;97120.97;;;1.64;91.84
33161;BME280;19522;45.656;11.302;2024-01-15T02:18:13;97158.16;;;1.75;92.16
33161;BME280;19522;45.656;11.302;2024-01-15T02:20:39;97161.00;;;1.82;92.40
33161;BME280;19522;45.656;11.302;2024-01-15T02:23:14;97157.22;;;2.26;90.15
33161;BME280;19522;45.656;11.302;2024-01-15T02:25:42;97150.84;;;2.43;88.29
33161;BME280;19522;45.656;11.302;2024-01-15T02:28:10;97140.09;;;2.10;89.45
33161;BME280;19522;45.656;11.302;2024-01-15T02:30:40;97127.03;;;1.99;90.52
33161;BME280;19522;45.656;11.302;2024-01-15T02:33:10;97117.81;;;1.85;91.17
33161;BME280;19522;45.656;11.302;2024-01-15T02:35:35;97131.69;;;1.64;91.40
33161;BME280;19522;45.656;11.302;2024-01-15T02:38:06;97141.03;;;1.60;92.60
33161;BME280;19522;45.656;11.302;2024-01-15T02:40:33;97136.03;;;1.65;92.46
33161;BME280;19522;45.656;11.302;2024-01-15T02:43:17;97132.88;;;1.69;92.40
33161;BME280;19522;45.656;11.302;2024-01-15T02:45:44;97120.16;;;1.63;92.62
33161;BME280;19522;45.656;11.302;2024-01-15T02:48:10;97126.00;;;1.67;92.41
33161;BME280;19522;45.656;11.302;2024-01-15T02:50:35;97103.28;;;1.96;89.77
33161;BME280;19522;45.656;11.302;2024-01-15T02:53:01;97111.81;;;2.24;89.30
33161;BME280;19522;45.656;11.302;2024-01-15T02:55:26;97095.59;;;2.26;88.00
33161;BME280;19522;45.656;11.302;2024-01-15T02:57:54;97103.28;;;2.12;87.93
33161;BME280;19522;45.656;11.302;2024-01-15T03:00:20;97082.19;;;1.93;88.70
33161;BME280;19522;45.656;11.302;2024-01-15T03:02:46;97090.22;;;2.09;88.07
33161;BME280;19522;45.656;11.302;2024-01-15T03:05:11;97098.06;;;1.78;89.38
33161;BME280;19522;45.656;11.302;2024-01-15T03:07:37;97087.50;;;1.60;90.21
33161;BME280;19522;45.656;11.302;2024-01-15T03:10:04;97078.28;;;1.54;91.48
33161;BME280;19522;45.656;11.302;2024-01-15T03:12:30;97089.91;;;1.88;89.86
33161;BME280;19522;45.656;11.302;2024-01-15T03:15:05;97001.53;;;1.46;89.00
33161;BME280;19522;45.656;11.302;2024-01-15T03:17:38;97067.31;;;1.82;89.73
33161;BME280;19522;45.656;11.302;2024-01-15T03:20:04;97069.28;;;1.55;90.66
33161;BME280;19522;45.656;11.302;2024-01-15T03:22:30;97058.53;;;1.22;91.76
33161;BME280;19522;45.656;11.302;2024-01-15T03:24:55;97052.66;;;1.18;92.33
33161;BME280;19522;45.656;11.302;2024-01-15T03:27:21;97061.34;;;1.20;92.87
33161;BME280;19522;45.656;11.302;2024-01-15T03:29:46;97064.06;;;1.37;92.10
33161;BME280;19522;45.656;11.302;2024-01-15T03:32:15;97055.38;;;1.43;91.08
33161;BME280;19522;45.656;11.302;2024-01-15T03:34:41;97058.25;;;1.66;89.94
33161;BME280;19522;45.656;11.302;2024-01-15T03:37:06;97047.53;;;1.58;89.62
33161;BME280;19522;45.656;11.302;2024-01-15T03:39:32;97033.16;;;1.43;90.40
33161;BME280;19522;45.656;11.302;2024-01-15T03:44:33;97019.69;;;1.01;92.02
33161;BME280;19522;45.656;11.302;2024-01-15T03:46:58;97023.16;;;0.93;93.30
33161;BME280;19522;45.656;11.302;2024-01-15T03:49:24;97011.56;;;1.19;92.99
33161;BME280;19522;45.656;11.302;2024-01-15T03:51:49;97010.88;;;1.26;91.40
33161;BME280;19522;45.656;11.302;2024-01-15T03:54:15;96965.13;;;0.69;92.44
33161;BME280;19522;45.656;11.302;2024-01-15T03:56:40;97010.69;;;1.19;92.30
33161;BME280;19522;45.656;11.302;2024-01-15T03:59:06;97022.16;;;0.95;92.47
33161;BME280;19522;45.656;11.302;2024-01-15T04:01:31;97016.22;;;0.66;93.27
33161;BME280;19522;45.656;11.302;2024-01-15T04:04:00;97020.69;;;0.57;94.77
33161;BME280;19522;45.656;11.302;2024-01-15T04:06:25;96997.78;;;0.46;95.21
33161;BME280;19522;45.656;11.302;2024-01-15T04:08:50;97006.50;;;1.00;93.64
33161;BME280;19522;45.656;11.302;2024-01-15T04:11:16;96997.81;;;1.22;91.77
33161;BME280;19522;45.656;11.302;2024-01-15T04:13:41;96989.09;;;0.96;92.01
33161;BME280;19522;45.656;11.302;2024-01-15T04:16:07;96983.28;;;0.57;93.35
33161;BME280;19522;45.656;11.302;2024-01-15T04:18:32;97005.97;;;0.53;94.77
33161;BME280;19522;45.656;11.302;2024-01-15T04:20:58;97013.91;;;0.37;95.53
33161;BME280;19522;45.656;11.302;2024-01-15T04:23:23;96958.34;;;0.06;95.71
33161;BME280;19522;45.656;11.302;2024-01-15T04:25:49;97005.06;;;0.36;95.92
33161;BME280;19522;45.656;11.302;2024-01-15T04:28:14;97012.69;;;0.57;95.38
33161;BME280;19522;45.656;11.302;2024-01-15T04:30:40;96991.59;;;0.46;94.95
33161;BME280;19522;45.656;11.302;2024-01-15T04:33:05;96963.75;;;0.14;95.19
33161;BME280;19522;45.656;11.302;2024-01-15T04:35:31;96980.94;;;0.54;95.31
33161;BME280;19522;45.656;11.302;2024-01-15T04:37:57;96982.38;;;0.91;92.81
33161;BME280;19522;45.656;11.302;2024-01-15T04:40:22;96986.59;;;0.43;93.80
33161;BME280;19522;45.656;11.302;2024-01-15T04:42:48;97001.25;;;0.39;95.22
33161;BME280;19522;45.656;11.302;2024-01-15T04:45:13;96999.00;;;0.60;95.11
33161;BME280;19522;45.656;11.302;2024-01-15T04:47:39;96982.97;;;0.60;94.31
33161;BME280;19522;45.656;11.302;2024-01-15T04:50:08;96988.91;;;0.11;95.63
33161;BME280;19522;45.656;11.302;2024-01-15T04:52:33;96973.78;;;-0.06;97.39
33161;BME280;19522;45.656;11.302;2024-01-15T04:54:59;96988.81;;;0.21;97.03
33161;BME280;19522;45.656;11.302;2024-01-15T04:57:24;96980.34;;;0.34;96.72
33161;BME280;19522;45.656;11.302;2024-01-15T04:59:50;96984.25;;;0.13;97.11
33161;BME280;19522;45.656;11.302;2024-01-15T05:02:15;96964.75;;;0.56;95.46
33161;BME280;19522;45.656;11.302;2024-01-15T05:04:41;96949.03;;;0.44;94.76
33161;BME280;19522;45.656;11.302;2024-01-15T05:07:06;96947.00;;;0.04;95.64
33161;BME280;19522;45.656;11.302;2024-01-15T05:09:32;96972.16;;;0.01;97.39
33161;BME280;19522;45.656;11.302;2024-01-15T05:11:57;96954.09;;;0.21;96.79
33161;BME280;19522;45.656;11.302;2024-01-15T05:14:22;96971.28;;;0.19;96.91
33161;BME280;19522;45.656;11.302;2024-01-15T05:16:49;96978.19;;;0.03;97.45
33161;BME280;19522;45.656;11.302;2024-01-15T05:19:14;96981.84;;;0.02;98.21
33161;BME280;19522;45.656;11.302;2024-01-15T05:21:40;96960.72;;;-0.18;98.35
33161;BME280;19522;45.656;11.302;2024-01-15T05:24:07;96960.91;;;-0.11;98.27
33161;BME280;19522;45.656;11.302;2024-01-15T05:26:33;96970.66;;;-0.02;98.04
33161;BME280;19522;45.656;11.302;2024-01-15T05:28:58;96970.81;;;-0.03;98.32
33161;BME280;19522;45.656;11.302;2024-01-15T05:31:24;96950.31;;;0.40;95.41
33161;BME280;19522;45.656;11.302;2024-01-15T05:33:50;96967.44;;;0.21;95.31
33161;BME280;19522;45.656;11.302;2024-01-15T05:36:15;96965.78;;;0.20;96.39
33161;BME280;19522;45.656;11.302;2024-01-15T05:38:41;96965.94;;;0.19;96.54
33161;BME280;19522;45.656;11.302;2024-01-15T05:41:06;96953.34;;;0.37;95.28
33161;BME280;19522;45.656;11.302;2024-01-15T05:43:32;96948.50;;;0.41;94.36
33161;BME280;19522;45.656;11.302;2024-01-15T05:45:57;96950.50;;;0.39;94.54
33161;BME280;19522;45.656;11.302;2024-01-15T05:48:23;96960.97;;;0.32;94.52
33161;BME280;19522;45.656;11.302;2024-01-15T05:50:49;96952.72;;;0.17;95.82
33161;BME280;19522;45.656;11.302;2024-01-15T05:53:14;96956.00;;;0.03;95.68
33161;BME280;19522;45.656;11.302;2024-01-15T05:55:40;96965.31;;;-0.54;97.90
33161;BME280;19522;45.656;11.302;2024-01-15T05:58:06;96956.38;;;-0.63;99.99
33161;BME280;19522;45.656;11.302;2024-01-15T06:00:32;96941.56;;;-0.39;99.84
33161;BME280;19522;45.656;11.302;2024-01-15T06:03:01;96916.50;;;-0.47;98.52
33161;BME280;19522;45.656;11.302;2024-01-15T06:05:27;96947.94;;;-0.32;98.81
33161;BME280;19522;45.656;11.302;2024-01-15T06:07:52;96949.03;;;-0.43;98.84
33161;BME280;19522;45.656;11.302;2024-01-15T06:10:18;96940.91;;;-0.59;99.56
33161;BME280;19522;45.656;11.302;2024-01-15T06:12:44;96947.50;;;-0.45;100.00
33161;BME280;19522;45.656;11.302;2024-01-15T06:15:09;96935.84;;;-0.44;99.43
33161;BME280;19522;45.656;11.302;2024-01-15T06:17:38;96931.03;;;-0.14;97.99
33161;BME280;19522;45.656;11.302;2024-01-15T06:20:04;96911.53;;;-0.41;98.65
33161;BME280;19522;45.656;11.302;2024-01-15T06:22:29;96954.97;;;-0.31;99.22
33161;BME280;19522;45.656;11.302;2024-01-15T06:24:55;96944.03;;;-0.46;99.48
33161;BME280;19522;45.656;11.302;2024-01-15T06:27:21;96965.94;;;-0.34;99.74
33161;BME280;19522;45.656;11.302;2024-01-15T06:29:47;96956.94;;;-0.33;100.00
33161;BME280;19522;45.656;11.302;2024-01-15T06:32:12;96950.97;;;-0.27;99.41
33161;BME280;19522;45.656;11.302;2024-01-15T06:34:38;96950.75;;;-0.34;99.38
33161;BME280;19522;45.656;11.302;2024-01-15T06:37:04;96946.75;;;-0.38;99.95
33161;BME280;19522;45.656;11.302;2024-01-15T06:39:30;96950.19;;;-0.19;99.06
33161;BME280;19522;45.656;11.302;2024-01-15T06:41:55;96941.84;;;-0.24;98.75
33161;BME280;19522;45.656;11.302;2024-01-15T06:44:21;96941.50;;;-0.21;98.91
33161;BME280;19522;45.656;11.302;2024-01-15T06:46:47;96934.66;;;0.03;97.62
33161;BME280;19522;45.656;11.302;2024-01-15T06:49:13;96929.34;;;0.11;95.67
33161;BME280;19522;45.656;11.302;2024-01-15T06:51:39;96931.72;;;0.14;95.91
33161;BME280;19522;45.656;11.302;2024-01-15T06:54:05;96924.28;;;-0.01;96.50
33161;BME280;19522;45.656;11.302;2024-01-15T06:56:31;96925.59;;;-0.05;97.07
33161;BME280;19522;45.656;11.302;2024-01-15T06:58:57;96889.78;;;-0.28;97.06
33161;BME280;19522;45.656;11.302;2024-01-15T07:01:22;96913.75;;;-0.10;97.51
33161;BME280;19522;45.656;11.302;2024-01-15T07:03:48;96917.91;;;-0.08;97.87
33161;BME280;19522;45.656;11.302;2024-01-15T07:06:14;96901.53;;;-0.13;97.55
33161;BME280;19522;45.656;11.302;2024-01-15T07:08:42;96897.47;;;-0.25;98.16
33161;BME280;19522;45.656;11.302;2024-01-15T07:11:08;96928.16;;;-0.21;98.88
33161;BME280;19522;45.656;11.302;2024-01-15T07:13:33;96918.28;;;0.06;97.73
33161;BME280;19522;45.656;11.302;2024-01-15T07:15:59;96912.63;;;0.01;97.17
33161;BME280;19522;45.656;11.302;2024-01-15T07:18:25;96905.31;;;0.11;96.73
33161;BME280;19522;45.656;11.302;2024-01-15T07:20:51;96903.56;;;0.28;96.36
33161;BME280;19522;45.656;11.302;2024-01-15T07:23:16;96899.91;;;0.37;95.07
33161;BME280;19522;45.656;11.302;2024-01-15T07:25:43;96927.03;;;0.16;96.83
33161;BME280;19522;45.656;11.302;2024-01-15T07:28:09;96889.03;;;-0.12;97.26
33161;BME280;19522;45.656;11.302;2024-01-15T07:30:34;96926.16;;;0.07;98.06
33161;BME280;19522;45.656;11.302;2024-01-15T07:33:00;96931.78;;;-0.04;98.85
33161;BME280;19522;45.656;11.302;2024-01-15T07:35:26;96916.50;;;-0.20;99.47
33161;BME280;19522;45.656;11.302;2024-01-15T07:37:51;96933.44;;;-0.03;100.00
33161;BME280;19522;45.656;11.302;2024-01-15T07:40:17;96933.56;;;0.22;99.99
33161;BME280;19522;45.656;11.302;2024-01-15T07:42:42;96928.47;;;0.45;97.42
33161;BME280;19522;45.656;11.302;2024-01-15T07:45:10;96943.78;;;0.35;97.55
33161;BME280;19522;45.656;11.302;2024-01-15T07:47:36;96944.66;;;0.35;98.08
33161;BME280;19522;45.656;11.302;2024-01-15T07:50:02;96935.84;;;0.51;96.89
33161;BME280;19522;45.656;11.302;2024-01-15T07:52:28;96930.84;;;0.56;96.28
33161;BME280;19522;45.656;11.302;2024-01-15T07:54:53;96931.16;;;0.45;96.65
33161;BME280;19522;45.656;11.302;2024-01-15T07:57:20;96931.81;;;0.39;97.51
33161;BME280;19522;45.656;11.302;2024-01-15T07:59:45;96936.91;;;0.75;95.97
33161;BME280;19522;45.656;11.302;2024-01-15T08:02:11;96924.25;;;0.85;95.08
33161;BME280;19522;45.656;11.302;2024-01-15T08:04:37;96928.28;;;0.89;94.57
33161;BME280;19522;45.656;11.302;2024-01-15T08:07:04;96930.44;;;0.86;94.59
33161;BME280;19522;45.656;11.302;2024-01-15T08:09:31;96900.97;;;0.61;95.33
33161;BME280;19522;45.656;11.302;2024-01-15T08:11:56;96940.44;;;0.75;95.87
33161;BME280;19522;45.656;11.302;2024-01-15T08:14:22;96928.19;;;0.65;96.09
33161;BME280;19522;45.656;11.302;2024-01-15T08:16:47;96940.53;;;0.49;97.46
33161;BME280;19522;45.656;11.302;2024-01-15T08:19:13;96933.16;;;0.43;98.47
33161;BME280;19522;45.656;11.302;2024-01-15T08:21:39;96925.50;;;0.48;98.58
33161;BME280;19522;45.656;11.302;2024-01-15T08:24:05;96892.19;;;0.18;99.58
33161;BME280;19522;45.656;11.302;2024-01-15T08:26:31;96930.44;;;0.35;100.00
33161;BME280;19522;45.656;11.302;2024-01-15T08:28:57;96926.13;;;0.34;100.00
33161;BME280;19522;45.656;11.302;2024-01-15T08:31:23;96933.78;;;0.37;100.00
33161;BME280;19522;45.656;11.302;2024-01-15T08:33:48;96916.47;;;0.49;100.00
33161;BME280;19522;45.656;11.302;2024-01-15T08:36:14;96929.19;;;0.64;100.00
33161;BME280;19522;45.656;11.302;2024-01-15T08:38:39;96936.31;;;1.06;99.22
33161;BME280;19522;45.656;11.302;2024-01-15T08:41:05;96927.16;;;1.33;96.56
33161;BME280;19522;45.656;11.302;2024-01-15T08:43:30;96933.13;;;1.27;96.77
33161;BME280;19522;45.656;11.302;2024-01-15T08:45:59;96925.63;;;1.22;97.34
33161;BME280;19522;45.656;11.302;2024-01-15T08:48:27;96938.16;;;1.05;98.10
33161;BME280;19522;45.656;11.302;2024-01-15T08:50:54;96944.50;;;1.04;99.04
33161;BME280;19522;45.656;11.302;2024-01-15T08:53:20;96941.47;;;1.16;99.29
33161;BME280;19522;45.656;11.302;2024-01-15T08:55:46;96932.63;;;1.32;99.06
33161;BME280;19522;45.656;11.302;2024-01-15T08:58:11;96897.72;;;1.42;97.93
33161;BME280;19522;45.656;11.302;2024-01-15T09:00:37;96920.34;;;1.95;96.19
33161;BME280;19522;45.656;11.302;2024-01-15T09:03:02;96893.44;;;1.80;94.64
33161;BME280;19522;45.656;11.302;2024-01-15T09:05:28;96922.88;;;1.89;95.17
33161;BME280;19522;45.656;11.302;2024-01-15T09:07:54;96935.09;;;1.83;95.80
33161;BME280;19522;45.656;11.302;2024-01-15T09:10:20;96907.72;;;1.73;95.44
33161;BME280;19522;45.656;11.302;2024-01-15T09:12:46;96902.16;;;1.82;95.35
33161;BME280;19522;45.656;11.302;2024-01-15T09:15:11;96898.25;;;2.10;92.45
33161;BME280;19522;45.656;11.302;2024-01-15T09:17:37;96930.75;;;2.38;92.73
33161;BME280;19522;45.656;11.302;2024-01-15T09:20:03;96915.16;;;2.42;92.40
33161;BME280;19522;45.656;11.302;2024-01-15T09:22:30;96913.66;;;2.47;91.41
33161;BME280;19522;45.656;11.302;2024-01-15T09:24:56;96917.75;;;2.67;90.21
33161;BME280;19522;45.656;11.302;2024-01-15T09:27:21;96918.97;;;2.87;89.31
33161;BME280;19522;45.656;11.302;2024-01-15T09:29:47;96907.66;;;3.00;88.26
33161;BME280;19522;45.656;11.302;2024-01-15T09:32:13;96885.69;;;3.43;86.38
33161;BME280;19522;45.656;11.302;2024-01-15T09:34:38;96902.50;;;3.60;85.37
33161;BME280;19522;45.656;11.302;2024-01-15T09:37:04;96901.91;;;4.03;84.40
33161;BME280;19522;45.656;11.302;2024-01-15T09:39:30;96915.03;;;4.43;82.57
33161;BME280;19522;45.656;11.302;2024-01-15T09:41:57;96908.19;;;4.77;80.30
33161;BME280;19522;45.656;11.302;2024-01-15T09:44:23;96892.16;;;5.05;77.94
33161;BME280;19522;45.656;11.302;2024-01-15T09:46:49;96907.25;;;5.43;76.14
33161;BME280;19522;45.656;11.302;2024-01-15T09:49:16;96904.72;;;5.91;74.46
33161;BME280;19522;45.656;11.302;2024-01-15T09:51:42;96908.28;;;6.27;73.32
33161;BME280;19522;45.656;11.302;2024-01-15T09:54:08;96875.91;;;6.69;68.80
33161;BME280;19522;45.656;11.302;2024-01-15T09:56:34;96889.53;;;7.36;67.95
33161;BME280;19522;45.656;11.302;2024-01-15T09:59:00;96884.38;;;7.82;66.32
33161;BME280;19522;45.656;11.302;2024-01-15T10:01:26;96852.75;;;8.02;64.57
33161;BME280;19522;45.656;11.302;2024-01-15T10:03:51;96871.56;;;8.42;62.98
33161;BME280;19522;45.656;11.302;2024-01-15T10:06:18;96862.75;;;8.67;61.33
33161;BME280;19522;45.656;11.302;2024-01-15T10:08:51;96846.72;;;9.11;59.51
33161;BME280;19522;45.656;11.302;2024-01-15T10:11:19;96848.06;;;9.52;58.50
33161;BME280;19522;45.656;11.302;2024-01-15T10:13:45;96842.34;;;9.86;57.28
33161;BME280;19522;45.656;11.302;2024-01-15T10:16:11;96806.97;;;10.37;54.54
33161;BME280;19522;45.656;11.302;2024-01-15T10:18:37;96810.72;;;10.73;54.24
33161;BME280;19522;45.656;11.302;2024-01-15T10:21:06;96800.66;;;11.34;51.96
33161;BME280;19522;45.656;11.302;2024-01-15T10:23:32;96814.69;;;11.31;52.30
33161;BME280;19522;45.656;11.302;2024-01-15T10:25:58;96817.94;;;11.52;51.12
33161;BME280;19522;45.656;11.302;2024-01-15T10:28:26;96801.63;;;11.64;50.08
33161;BME280;19522;45.656;11.302;2024-01-15T10:30:55;96817.41;;;11.31;50.44
33161;BME280;19522;45.656;11.302;2024-01-15T10:33:23;96818.13;;;10.28;52.41
33161;BME280;19522;45.656;11.302;2024-01-15T10:35:59;96813.31;;;10.12;52.85
33161;BME280;19522;45.656;11.302;2024-01-15T10:38:26;96799.22;;;10.03;54.05
33161;BME280;19522;45.656;11.302;2024-01-15T10:40:53;96798.41;;;9.59;53.98
33161;BME280;19522;45.656;11.302;2024-01-15T10:43:18;96791.94;;;9.34;54.59
33161;BME280;19522;45.656;11.302;2024-01-15T10:45:45;96770.47;;;9.58;55.37
33161;BME280;19522;45.656;11.302;2024-01-15T10:48:11;96782.06;;;9.22;54.55
33161;BME280;19522;45.656;11.302;2024-01-15T10:50:37;96785.59;;;9.47;53.73
33161;BME280;19522;45.656;11.302;2024-01-15T10:53:04;96779.94;;;8.98;54.38
33161;BME280;19522;45.656;11.302;2024-01-15T10:55:33;96776.69;;;9.15;55.04
33161;BME280;19522;45.656;11.302;2024-01-15T10:57:59;96775.03;;;9.14;54.73
33161;BME280;19522;45.656;11.302;2024-01-15T11:00:25;96785.28;;;9.05;55.63
33161;BME280;19522;45.656;11.302;2024-01-15T11:02:51;96720.75;;;9.27;54.52
33161;BME280;19522;45.656;11.302;2024-01-15T11:05:21;96770.06;;;10.17;54.01
33161;BME280;19522;45.656;11.302;2024-01-15T11:07:48;96769.31;;;10.10;52.72
33161;BME280;19522;45.656;11.302;2024-01-15T11:10:48;96769.31;;;9.91;53.03
33161;BME280;19522;45.656;11.302;2024-01-15T11:13:20;96771.09;;;10.16;53.12
33161;BME280;19522;45.656;11.302;2024-01-15T11:16:01;96767.19;;;10.31;52.68
33161;BME280;19522;45.656;11.302;2024-01-15T11:18:29;96766.88;;;9.64;52.90
33161;BME280;19522;45.656;11.302;2024-01-15T11:21:24;96764.16;;;8.88;55.09
33161;BME280;19522;45.656;11.302;2024-01-15T11:23:56;96753.63;;;9.06;55.63
33161;BME280;19522;45.656;11.302;2024-01-15T11:26:38;96757.66;;;8.19;57.60
33161;BME280;19522;45.656;11.302;2024-01-15T11:29:29;96745.94;;;7.79;59.63
33161;BME280;19522;45.656;11.302;2024-01-15T11:34:49;96757.47;;;6.88;63.71
33161;BME280;19522;45.656;11.302;2024-01-15T11:37:06;96761.13;;;6.66;65.17
33161;BME280;19522;45.656;11.302;2024-01-15T11:42:01;96756.00;;;6.98;65.59
33161;BME280;19522;45.656;11.302;2024-01-15T11:44:28;96748.06;;;7.44;64.83
33161;BME280;19522;45.656;11.302;2024-01-15T11:47:00;96749.88;;;7.84;63.43
33161;BME280;19522;45.656;11.302;2024-01-15T11:50:02;96743.69;;;8.67;61.87
33161;BME280;19522;45.656;11.302;2024-01-15T11:52:35;96738.97;;;8.88;58.84
33161;BME280;19522;45.656;11.302;2024-01-15T11:55:12;96720.50;;;9.54;57.75
33161;BME280;19522;45.656;11.302;2024-01-15T11:57:41;96723.28;;;9.66;57.13
33161;BME280;19522;45.656;11.302;2024-01-15T12:00:11;96720.44;;;9.79;55.57
33161;BME280;19522;45.656;11.302;2024-01-15T12:02:47;96650.03;;;9.54;55.88
33161;BME280;19522;45.656;11.302;2024-01-15T12:05:15;96711.59;;;9.47;54.38
33161;BME280;19522;45.656;11.302;2024-01-15T12:07:42;96699.56;;;9.80;54.36
33161;BME280;19522;45.656;11.302;2024-01-15T12:10:12;96665.00;;;10.43;53.22
33161;BME280;19522;45.656;11.302;2024-01-15T12:12:47;96684.06;;;10.79;52.07
33161;BME280;19522;45.656;11.302;2024-01-15T12:15:15;96675.84;;;10.24;52.55
33161;BME280;19522;45.656;11.302;2024-01-15T12:17:45;96647.34;;;10.76;53.48
33161;BME280;19522;45.656;11.302;2024-01-15T12:20:13;96657.91;;;11.08;50.01
33161;BME280;19522;45.656;11.302;2024-01-15T12:22:39;96656.56;;;10.33;52.56
33161;BME280;19522;45.656;11.302;2024-01-15T12:25:05;96654.13;;;10.24;53.43
33161;BME280;19522;45.656;11.302;2024-01-15T12:27:31;96608.91;;;9.39;53.93
33161;BME280;19522;45.656;11.302;2024-01-15T12:29:58;96625.78;;;9.59;54.37
33161;BME280;19522;45.656;11.302;2024-01-15T12:32:24;96639.19;;;9.54;53.98
33161;BME280;19522;45.656;11.302;2024-01-15T12:34:50;96632.06;;;9.90;54.29
33161;BME280;19522;45.656;11.302;2024-01-15T12:37:18;96622.44;;;9.94;54.51
33161;BME280;19522;45.656;11.302;2024-01-15T12:39:44;96601.47;;;10.02;54.20
33161;BME280;19522;45.656;11.302;2024-01-15T12:42:10;96600.63;;;9.71;55.09
33161;BME280;19522;45.656;11.302;2024-01-15T12:44:36;96605.75;;;9.60;55.14
33161;BME280;19522;45.656;11.302;2024-01-15T12:47:05;96565.00;;;9.37;55.80
33161;BME280;19522;45.656;11.302;2024-01-15T12:49:30;96613.34;;;9.89;55.12
33161;BME280;19522;45.656;11.302;2024-01-15T12:51:57;96611.19;;;9.60;53.83
33161;BME280;19522;45.656;11.302;2024-01-15T12:54:23;96595.72;;;8.86;56.15
33161;BME280;19522;45.656;11.302;2024-01-15T12:56:49;96578.53;;;9.86;54.58
33161;BME280;19522;45.656;11.302;2024-01-15T12:59:15;96598.75;;;10.02;54.02
33161;BME280;19522;45.656;11.302;2024-01-15T13:01:41;96571.66;;;9.15;55.56
33161;BME280;19522;45.656;11.302;2024-01-15T13:04:07;96571.47;;;9.35;56.45
33161;BME280;19522;45.656;11.302;2024-01-15T13:06:34;96596.28;;;9.32;55.20